Time;durP1;ratioP1;P1;durP2;ratioP2;P2;SDS_P1;SDS_P2;PMS_P1;PMS_P2;Temp;Humidity;BMP_temperature;BMP_pressure;BME280_temperature;BME280_humidity;BME280_pressure;Samples;Min_cycle;Max_cycle;Signal;HPM_P1;HPM_P2
2023/06/06 00:00:19;;;;;;;11.63;5.68;;;11.80;99.90;;;;;;4970884;28;20202;-64
2023/06/06 00:02:48;;;;;;;7.63;5.32;;;11.70;99.90;;;;;;4982007;28;20357;-64
2023/06/06 00:05:16;;;;;;;7.78;5.60;;;11.60;99.90;;;;;;4992965;28;20697;-65
2023/06/06 00:07:44;;;;;;;11.48;6.05;;;11.60;99.90;;;;;;5004293;28;20207;-64
2023/06/06 00:10:12;;;;;;;10.95;5.95;;;11.60;99.90;;;;;;5002217;28;20236;-64
2023/06/06 00:12:41;;;;;;;9.13;6.10;;;11.60;99.90;;;;;;4981046;28;20217;-64
2023/06/06 00:15:09;;;;;;;8.07;5.60;;;11.60;99.90;;;;;;4971340;28;20251;-64
2023/06/06 00:17:38;;;;;;;8.10;5.47;;;11.60;99.90;;;;;;4983770;28;20316;-64
2023/06/06 00:20:08;;;;;;;13.20;5.90;;;11.60;99.90;;;;;;4997372;28;20735;-64
2023/06/06 00:22:35;;;;;;;16.63;6.28;;;11.50;99.90;;;;;;4992053;28;20684;-64
2023/06/06 00:25:03;;;;;;;10.65;6.28;;;11.50;99.90;;;;;;4991531;28;20926;-64
2023/06/06 00:27:30;;;;;;;9.43;6.18;;;11.50;99.90;;;;;;4995430;28;20202;-64
2023/06/06 00:29:57;;;;;;;8.45;6.00;;;11.50;99.90;;;;;;4955316;28;20233;-64
2023/06/06 00:32:24;;;;;;;12.00;6.05;;;11.50;99.90;;;;;;4990794;28;20234;-64
2023/06/06 00:34:50;;;;;;;8.07;5.90;;;11.40;99.90;;;;;;4999686;28;20206;-64
2023/06/06 00:37:19;;;;;;;11.50;6.22;;;11.40;99.90;;;;;;4986242;28;20221;-64
2023/06/06 00:39:45;;;;;;;13.70;6.40;;;11.40;99.90;;;;;;5003587;28;20205;-65
2023/06/06 00:42:12;;;;;;;8.32;6.03;;;11.40;99.90;;;;;;5004705;28;20199;-64
2023/06/06 00:44:39;;;;;;;7.93;6.30;;;11.50;99.90;;;;;;4958975;28;20225;-64
2023/06/06 00:47:07;;;;;;;12.32;6.57;;;11.50;99.90;;;;;;5003729;28;20696;-64
2023/06/06 00:49:36;;;;;;;12.20;6.15;;;11.50;99.90;;;;;;4986976;28;20227;-64
2023/06/06 00:52:04;;;;;;;11.82;6.13;;;11.60;99.90;;;;;;4990782;28;20198;-64
2023/06/06 00:54:34;;;;;;;13.35;6.60;;;11.50;99.90;;;;;;4994582;28;20209;-64
2023/06/06 00:57:03;;;;;;;11.48;6.53;;;11.40;99.90;;;;;;4993394;28;20210;-64
2023/06/06 00:59:30;;;;;;;10.82;6.32;;;11.30;99.90;;;;;;4973161;28;20214;-64
2023/06/06 01:01:58;;;;;;;12.63;6.72;;;11.30;99.90;;;;;;4992397;28;20253;-64
2023/06/06 01:04:26;;;;;;;10.65;6.57;;;11.20;99.90;;;;;;4982583;28;20217;-64
2023/06/06 01:06:53;;;;;;;8.05;6.20;;;11.20;99.90;;;;;;5003052;28;20202;-64
2023/06/06 01:09:20;;;;;;;9.65;5.75;;;11.20;99.90;;;;;;4994786;28;20217;-64
2023/06/06 01:11:56;;;;;;;10.40;6.45;;;11.10;99.90;;;;;;5000951;28;20199;-65
2023/06/06 01:14:31;;;;;;;9.80;5.82;;;11.00;99.90;;;;;;4983626;28;20217;-64
2023/06/06 01:17:02;;;;;;;12.45;5.47;;;11.00;99.90;;;;;;4973441;28;20227;-64
2023/06/06 01:19:32;;;;;;;8.70;5.60;;;11.10;99.90;;;;;;5004350;28;20329;-64
2023/06/06 01:22:00;;;;;;;10.40;6.55;;;11.20;99.90;;;;;;4990707;28;20281;-65
2023/06/06 01:24:28;;;;;;;8.63;5.95;;;11.10;99.90;;;;;;4992343;28;20206;-64
2023/06/06 01:26:55;;;;;;;8.30;5.65;;;11.10;99.90;;;;;;5004447;28;20299;-64
2023/06/06 01:29:22;;;;;;;8.75;5.72;;;11.10;99.90;;;;;;4976239;28;20232;-64
2023/06/06 01:31:57;;;;;;;9.10;5.78;;;11.10;99.90;;;;;;4970881;28;20234;-64
2023/06/06 01:34:30;;;;;;;8.18;5.05;;;11.10;99.90;;;;;;5001984;28;20210;-64
2023/06/06 01:37:07;;;;;;;9.90;5.20;;;11.10;99.90;;;;;;4994178;28;20206;-64
2023/06/06 01:39:37;;;;;;;8.50;5.10;;;11.10;99.90;;;;;;4993233;28;20205;-63
2023/06/06 01:42:05;;;;;;;12.52;5.57;;;11.00;99.90;;;;;;5000792;28;20202;-64
2023/06/06 01:44:33;;;;;;;8.65;5.13;;;11.10;99.90;;;;;;4973113;28;20256;-65
2023/06/06 01:47:01;;;;;;;8.68;4.95;;;11.10;99.90;;;;;;4976090;28;20778;-64
2023/06/06 01:49:28;;;;;;;9.63;6.13;;;11.20;99.90;;;;;;5003248;28;20563;-64
2023/06/06 01:51:55;;;;;;;7.80;5.25;;;11.20;99.90;;;;;;4997477;28;20205;-64
2023/06/06 01:54:23;;;;;;;10.75;5.65;;;11.20;99.90;;;;;;4990142;28;20198;-64
2023/06/06 01:56:50;;;;;;;8.23;4.63;;;11.10;99.90;;;;;;5001907;28;21314;-64
2023/06/06 01:59:17;;;;;;;6.85;5.40;;;11.10;99.90;;;;;;4977342;28;20293;-64
2023/06/06 02:01:44;;;;;;;10.75;6.40;;;11.10;99.90;;;;;;4973113;28;20210;-64
2023/06/06 02:04:11;;;;;;;8.93;5.47;;;11.10;99.90;;;;;;5003623;28;20790;-64
2023/06/06 02:06:37;;;;;;;7.90;4.82;;;11.10;99.90;;;;;;5003107;28;20208;-64
2023/06/06 02:09:06;;;;;;;10.00;5.07;;;11.00;99.90;;;;;;4992158;28;20209;-64
2023/06/06 02:11:34;;;;;;;7.47;4.30;;;11.00;99.90;;;;;;4991758;28;20277;-64
2023/06/06 02:14:01;;;;;;;7.68;5.07;;;11.00;99.90;;;;;;4992957;28;20218;-64
2023/06/06 02:16:29;;;;;;;7.70;5.03;;;10.90;99.90;;;;;;4964200;28;20276;-64
2023/06/06 02:18:57;;;;;;;9.77;5.70;;;10.90;99.90;;;;;;5003437;28;20198;-64
2023/06/06 02:21:23;;;;;;;8.75;5.45;;;10.90;99.90;;;;;;5002681;28;20202;-64
2023/06/06 02:23:50;;;;;;;13.00;4.97;;;10.90;99.90;;;;;;4996503;28;20210;-64
2023/06/06 02:26:17;;;;;;;9.95;5.28;;;10.90;99.90;;;;;;4992717;28;20227;-65
2023/06/06 02:28:46;;;;;;;8.45;5.03;;;10.90;99.90;;;;;;5003943;28;20252;-64
2023/06/06 02:31:14;;;;;;;7.97;4.78;;;10.90;99.90;;;;;;4967397;28;20731;-65
2023/06/06 02:33:41;;;;;;;8.00;5.50;;;10.90;99.90;;;;;;5001755;28;20206;-64
2023/06/06 02:36:08;;;;;;;9.13;5.28;;;10.90;99.90;;;;;;5002706;28;20202;-64
2023/06/06 02:38:35;;;;;;;9.63;5.53;;;10.90;99.90;;;;;;4997256;28;20211;-64
2023/06/06 02:41:01;;;;;;;11.07;6.22;;;10.90;99.90;;;;;;5006677;28;20678;-64
2023/06/06 02:43:28;;;;;;;9.82;5.10;;;10.80;99.90;;;;;;4992226;28;20213;-64
2023/06/06 02:45:56;;;;;;;11.25;5.78;;;10.80;99.90;;;;;;5009876;28;20206;-64
2023/06/06 02:48:24;;;;;;;10.05;5.40;;;10.90;99.90;;;;;;4970349;28;20214;-64
2023/06/06 02:50:50;;;;;;;8.93;5.70;;;10.90;99.90;;;;;;5003697;28;20706;-64
2023/06/06 02:53:17;;;;;;;9.13;4.95;;;10.90;99.90;;;;;;4993880;28;20710;-64
2023/06/06 02:55:44;;;;;;;11.10;4.88;;;10.80;99.90;;;;;;5001076;28;20191;-64
2023/06/06 02:58:28;;;;;;;8.25;5.93;;;10.90;99.90;;;;;;4990124;28;20237;-64
2023/06/06 03:00:56;;;;;;;6.45;4.75;;;10.90;99.90;;;;;;4993862;28;20202;-64
2023/06/06 03:03:23;;;;;;;13.85;5.15;;;11.00;99.90;;;;;;4964119;28;20234;-64
2023/06/06 03:05:51;;;;;;;12.50;5.05;;;10.90;99.90;;;;;;5004742;28;20198;-64
2023/06/06 03:08:18;;;;;;;7.55;5.07;;;10.90;99.90;;;;;;4988552;28;21018;-64
2023/06/06 03:10:46;;;;;;;13.82;5.25;;;10.80;99.90;;;;;;5002401;28;20225;-64
2023/06/06 03:13:13;;;;;;;8.10;5.40;;;10.70;99.90;;;;;;4992099;28;20284;-65
2023/06/06 03:15:41;;;;;;;8.48;5.32;;;10.80;99.90;;;;;;4991641;28;20198;-64
2023/06/06 03:18:09;;;;;;;7.20;4.78;;;10.80;99.90;;;;;;4969990;28;20230;-64
2023/06/06 03:20:39;;;;;;;13.45;6.10;;;10.80;99.90;;;;;;4996877;28;20207;-64
2023/06/06 03:23:06;;;;;;;10.23;5.45;;;10.90;99.90;;;;;;4996079;28;20206;-64
2023/06/06 03:25:33;;;;;;;11.10;5.80;;;10.90;99.90;;;;;;4981070;28;20225;-64
2023/06/06 03:28:01;;;;;;;8.70;5.07;;;10.90;99.90;;;;;;4986762;28;20209;-64
2023/06/06 03:30:27;;;;;;;13.48;6.30;;;11.00;99.90;;;;;;4999189;28;21219;-64
2023/06/06 03:32:55;;;;;;;8.05;5.05;;;10.90;99.90;;;;;;4969025;28;20229;-64
2023/06/06 03:35:24;;;;;;;8.25;5.20;;;10.90;99.90;;;;;;5004867;28;20194;-64
2023/06/06 03:37:55;;;;;;;8.95;4.97;;;10.90;99.90;;;;;;4999342;28;20201;-64
2023/06/06 03:40:22;;;;;;;12.93;5.75;;;10.90;99.90;;;;;;4985849;28;20588;-64
2023/06/06 03:42:49;;;;;;;12.82;5.50;;;10.90;99.90;;;;;;5007077;28;20209;-63
2023/06/06 03:45:16;;;;;;;7.72;5.57;;;10.90;99.90;;;;;;4989200;28;20251;-64
2023/06/06 03:47:43;;;;;;;8.85;5.35;;;11.00;99.90;;;;;;4967818;28;21549;-65
2023/06/06 03:50:11;;;;;;;11.55;5.57;;;11.10;99.90;;;;;;4998061;28;20221;-64
2023/06/06 03:52:40;;;;;;;13.95;5.10;;;10.90;99.90;;;;;;4981787;28;20214;-64
2023/06/06 03:55:08;;;;;;;14.90;5.47;;;11.10;99.90;;;;;;4989697;28;20215;-64
2023/06/06 03:57:35;;;;;;;5.60;4.40;;;11.20;99.90;;;;;;4967009;28;20205;-63
2023/06/06 04:00:04;;;;;;;10.30;5.22;;;11.20;99.90;;;;;;4984967;28;20293;-64
2023/06/06 04:02:31;;;;;;;10.25;5.20;;;11.20;99.90;;;;;;4989943;28;20320;-64
2023/06/06 04:05:01;;;;;;;8.63;4.50;;;11.20;99.90;;;;;;4966279;28;20569;-64
2023/06/06 04:07:28;;;;;;;7.43;5.50;;;11.20;99.90;;;;;;5001551;28;20194;-64
2023/06/06 04:09:57;;;;;;;7.38;4.50;;;11.30;99.90;;;;;;4995264;28;20209;-64
2023/06/06 04:12:24;;;;;;;7.90;4.72;;;11.30;99.90;;;;;;4979343;28;20233;-64
2023/06/06 04:14:51;;;;;;;6.72;3.90;;;11.20;99.90;;;;;;4985119;28;20202;-64
2023/06/06 04:17:18;;;;;;;8.00;4.70;;;11.20;99.90;;;;;;4990049;28;20223;-64
2023/06/06 04:19:47;;;;;;;9.30;5.10;;;11.10;99.90;;;;;;4970706;28;20206;-64
2023/06/06 04:22:14;;;;;;;7.90;4.80;;;11.20;99.90;;;;;;5004870;28;20205;-64
2023/06/06 04:24:41;;;;;;;11.57;5.65;;;11.00;99.90;;;;;;4995359;28;20206;-64
2023/06/06 04:27:09;;;;;;;9.10;4.57;;;11.20;99.90;;;;;;4977692;28;21693;-64
2023/06/06 04:29:36;;;;;;;9.73;5.78;;;11.30;99.90;;;;;;4987501;28;20199;-64
2023/06/06 04:32:05;;;;;;;5.20;4.63;;;11.40;99.90;;;;;;4984076;28;20268;-64
2023/06/06 04:34:33;;;;;;;11.20;5.13;;;11.40;99.90;;;;;;4989099;22;20719;-64
2023/06/06 04:37:03;;;;;;;8.43;4.65;;;11.50;99.90;;;;;;5057697;28;20223;-64
2023/06/06 04:39:31;;;;;;;8.55;5.20;;;11.60;99.90;;;;;;5040725;28;20204;-64
2023/06/06 04:41:58;;;;;;;11.88;5.55;;;11.60;99.90;;;;;;5029406;28;20223;-64
2023/06/06 04:44:27;;;;;;;10.50;4.85;;;11.70;99.90;;;;;;5039179;28;20296;-64
2023/06/06 04:47:00;;;;;;;5.32;4.18;;;11.70;99.90;;;;;;5036450;28;20221;-64
2023/06/06 04:49:27;;;;;;;10.50;4.75;;;11.80;99.90;;;;;;5020619;28;20710;-64
2023/06/06 04:51:56;;;;;;;9.80;5.00;;;11.80;99.90;;;;;;5053218;28;20232;-64
2023/06/06 04:54:24;;;;;;;12.95;4.97;;;11.90;99.90;;;;;;5043160;28;20315;-64
2023/06/06 04:56:51;;;;;;;12.52;4.82;;;12.00;99.90;;;;;;5025007;28;20266;-64
2023/06/06 04:59:22;;;;;;;9.38;4.88;;;12.10;99.90;;;;;;5041970;28;20220;-64
2023/06/06 05:01:51;;;;;;;11.20;5.28;;;12.10;99.90;;;;;;5062214;28;20224;-64
2023/06/06 05:04:18;;;;;;;9.82;5.40;;;12.10;99.90;;;;;;5038639;28;20266;-65
2023/06/06 05:06:46;;;;;;;11.10;5.80;;;12.20;99.90;;;;;;5006994;28;20744;-64
2023/06/06 05:09:13;;;;;;;10.07;5.25;;;12.20;99.90;;;;;;5044491;28;20315;-64
2023/06/06 05:11:45;;;;;;;9.05;5.15;;;12.30;99.90;;;;;;5026728;28;20247;-64
2023/06/06 05:14:12;;;;;;;11.05;4.63;;;12.30;99.90;;;;;;5027184;28;20247;-63
2023/06/06 05:16:39;;;;;;;9.98;5.30;;;12.40;99.90;;;;;;5058283;28;20246;-64
2023/06/06 05:19:08;;;;;;;13.85;5.32;;;12.50;99.90;;;;;;5030369;28;20215;-65
2023/06/06 05:21:34;;;;;;;17.83;5.85;;;12.50;99.90;;;;;;5030634;28;20207;-64
2023/06/06 05:24:01;;;;;;;13.00;5.68;;;12.60;99.90;;;;;;5053968;28;20755;-64
2023/06/06 05:26:30;;;;;;;12.00;6.03;;;12.60;99.90;;;;;;5031918;28;20232;-64
2023/06/06 05:28:56;;;;;;;11.45;6.13;;;12.70;99.90;;;;;;5060090;28;20220;-64
2023/06/06 05:31:23;;;;;;;10.25;5.68;;;12.80;99.90;;;;;;5061158;28;20228;-64
2023/06/06 05:33:51;;;;;;;13.98;5.78;;;12.90;99.90;;;;;;5051127;28;21007;-64
2023/06/06 05:36:19;;;;;;;12.82;6.00;;;12.90;99.90;;;;;;5032171;28;20200;-64
2023/06/06 05:38:46;;;;;;;12.25;5.65;;;13.10;99.90;;;;;;5067955;28;20298;-65
2023/06/06 05:41:13;;;;;;;15.85;6.63;;;13.10;99.90;;;;;;5052572;28;20983;-64
2023/06/06 05:43:40;;;;;;;10.70;5.85;;;13.10;99.90;;;;;;5063277;28;20444;-64
2023/06/06 05:46:07;;;;;;;11.20;5.88;;;13.20;99.90;;;;;;5064480;28;20201;-64
2023/06/06 05:48:34;;;;;;;14.02;6.43;;;13.20;99.90;;;;;;5064907;28;20211;-64
2023/06/06 05:51:01;;;;;;;13.15;6.38;;;13.30;99.90;;;;;;5039732;28;21069;-64
2023/06/06 05:53:29;;;;;;;10.85;6.07;;;13.40;99.90;;;;;;5033293;28;20410;-65
2023/06/06 05:55:56;;;;;;;13.57;6.43;;;13.40;99.90;;;;;;5049909;28;20912;-64
2023/06/06 05:58:23;;;;;;;14.18;6.25;;;13.50;99.90;;;;;;5045804;28;20212;-64
2023/06/06 06:00:50;;;;;;;11.68;6.55;;;13.50;99.90;;;;;;5049021;28;20867;-64
2023/06/06 06:03:16;;;;;;;11.55;7.00;;;13.60;99.90;;;;;;5058904;28;20441;-64
2023/06/06 06:05:43;;;;;;;13.55;6.18;;;13.60;99.90;;;;;;5057844;28;20196;-65
2023/06/06 06:08:10;;;;;;;16.35;6.35;;;13.60;99.90;;;;;;5011435;28;20718;-65
2023/06/06 06:10:39;;;;;;;10.45;6.05;;;13.70;99.90;;;;;;5059675;28;20192;-64
2023/06/06 06:13:06;;;;;;;12.38;6.28;;;13.70;99.90;;;;;;5031981;28;20221;-65
2023/06/06 06:15:35;;;;;;;16.70;6.18;;;13.80;99.90;;;;;;5064958;28;20433;-65
2023/06/06 06:18:03;;;;;;;16.95;5.93;;;13.80;99.90;;;;;;5048746;28;20694;-65
2023/06/06 06:20:30;;;;;;;9.45;4.50;;;13.90;99.90;;;;;;5049682;28;20231;-64
2023/06/06 06:22:56;;;;;;;12.50;5.50;;;14.00;99.90;;;;;;5025102;28;21625;-65
2023/06/06 06:25:24;;;;;;;12.98;5.43;;;14.20;99.90;;;;;;5065948;28;20216;-65
2023/06/06 06:27:52;;;;;;;8.57;5.18;;;14.30;99.90;;;;;;5040520;28;20215;-65
2023/06/06 06:30:19;;;;;;;12.60;5.40;;;14.40;99.90;;;;;;5073101;28;20220;-64
2023/06/06 06:32:46;;;;;;;18.45;5.82;;;14.70;99.90;;;;;;5049415;28;21296;-64
2023/06/06 06:35:13;;;;;;;8.45;5.38;;;14.70;99.90;;;;;;5064254;28;20234;-65
2023/06/06 06:37:40;;;;;;;10.48;5.10;;;14.60;99.90;;;;;;5046769;28;20331;-64
2023/06/06 06:40:09;;;;;;;13.25;5.78;;;14.50;99.90;;;;;;5034522;28;20200;-64
2023/06/06 06:42:39;;;;;;;17.05;5.15;;;14.50;99.90;;;;;;5062736;28;20216;-64
2023/06/06 06:45:10;;;;;;;10.82;5.55;;;14.50;99.90;;;;;;5051608;28;20295;-65
2023/06/06 06:47:37;;;;;;;10.75;5.97;;;14.50;99.90;;;;;;5063511;28;20227;-65
2023/06/06 06:50:05;;;;;;;8.43;5.18;;;14.50;99.90;;;;;;5049492;28;20433;-65
2023/06/06 06:52:33;;;;;;;15.25;5.50;;;14.60;99.90;;;;;;5053773;28;20239;-65
2023/06/06 06:55:01;;;;;;;12.48;4.78;;;14.60;99.90;;;;;;5020108;28;20407;-65
2023/06/06 06:57:28;;;;;;;11.13;5.38;;;14.60;99.90;;;;;;5067869;28;20208;-65
2023/06/06 06:59:55;;;;;;;15.13;6.03;;;14.70;99.90;;;;;;5044114;28;20230;-65
2023/06/06 07:02:26;;;;;;;11.40;5.60;;;14.80;99.90;;;;;;5061702;28;20193;-65
2023/06/06 07:04:53;;;;;;;9.13;4.50;;;14.80;99.90;;;;;;5042517;28;20274;-65
2023/06/06 07:07:20;;;;;;;11.70;5.28;;;14.80;99.90;;;;;;5038218;28;20223;-65
2023/06/06 07:09:47;;;;;;;10.55;4.47;;;14.80;99.90;;;;;;5022725;28;20203;-65
2023/06/06 07:12:14;;;;;;;11.25;5.10;;;14.90;99.90;;;;;;5041090;28;20808;-64
2023/06/06 07:14:41;;;;;;;11.23;4.57;;;15.00;99.90;;;;;;5030986;28;20208;-65
2023/06/06 07:17:08;;;;;;;12.38;4.88;;;15.00;99.90;;;;;;5057134;28;20192;-65
2023/06/06 07:19:36;;;;;;;9.27;4.53;;;15.10;99.90;;;;;;5058984;28;20608;-64
2023/06/06 07:22:04;;;;;;;11.48;5.00;;;15.20;99.90;;;;;;5043533;28;20862;-65
2023/06/06 07:24:31;;;;;;;13.25;5.68;;;15.20;99.90;;;;;;5049342;28;20716;-65
2023/06/06 07:26:58;;;;;;;6.43;4.10;;;15.20;99.90;;;;;;5012732;28;20213;-65
2023/06/06 07:29:26;;;;;;;7.78;4.63;;;15.20;99.90;;;;;;5037058;28;20576;-64
2023/06/06 07:31:53;;;;;;;10.50;4.70;;;15.20;99.90;;;;;;5051242;28;20235;-65
2023/06/06 07:34:20;;;;;;;8.95;4.07;;;15.20;99.90;;;;;;5055488;28;20451;-64
2023/06/06 07:36:49;;;;;;;9.55;4.45;;;15.30;57.20;;;;;;5047651;28;20215;-65
2023/06/06 07:39:15;;;;;;;5.13;3.78;;;15.50;69.40;;;;;;5049368;28;20196;-65
2023/06/06 07:41:42;;;;;;;8.20;4.20;;;15.40;44.70;;;;;;5021626;28;20220;-65
2023/06/06 07:44:09;;;;;;;7.88;4.15;;;15.40;48.20;;;;;;5050482;28;20209;-65
2023/06/06 07:46:36;;;;;;;12.80;4.32;;;15.60;57.00;;;;;;5038550;28;20208;-65
2023/06/06 07:49:03;;;;;;;9.77;4.82;;;15.60;58.10;;;;;;5057576;28;20735;-64
2023/06/06 07:51:30;;;;;;;9.43;4.18;;;15.60;56.60;;;;;;5039379;28;20684;-65
2023/06/06 07:53:58;;;;;;;11.80;4.82;;;15.80;69.20;;;;;;5041687;28;20219;-65
2023/06/06 07:56:24;;;;;;;11.23;4.75;;;15.70;52.10;;;;;;5028004;28;20223;-65
2023/06/06 07:58:53;;;;;;;12.48;5.22;;;15.70;53.30;;;;;;5049057;28;20204;-65
2023/06/06 08:01:21;;;;;;;10.05;5.15;;;15.70;51.90;;;;;;5043146;28;20197;-65
2023/06/06 08:03:49;;;;;;;9.88;5.38;;;15.70;58.90;;;;;;5061266;28;20593;-65
2023/06/06 08:06:17;;;;;;;7.28;4.38;;;15.80;70.60;;;;;;5056200;28;20199;-65
2023/06/06 08:08:45;;;;;;;9.77;4.70;;;15.80;59.50;;;;;;5048699;28;20204;-64
2023/06/06 08:11:14;;;;;;;8.20;4.75;;;15.70;53.90;;;;;;5033408;28;20212;-65
2023/06/06 08:13:41;;;;;;;9.27;5.65;;;15.80;58.30;;;;;;5060157;28;20225;-65
2023/06/06 08:16:07;;;;;;;15.30;5.55;;;15.90;56.00;;;;;;5060413;28;21070;-65
2023/06/06 08:18:34;;;;;;;9.77;4.50;;;16.00;58.10;;;;;;5044100;28;20205;-65
2023/06/06 08:21:01;;;;;;;11.85;4.88;;;16.00;56.90;;;;;;5048505;28;20339;-65
2023/06/06 08:23:28;;;;;;;10.90;4.82;;;16.10;56.20;;;;;;5059396;28;20200;-65
2023/06/06 08:25:55;;;;;;;12.98;5.13;;;16.00;47.60;;;;;;5046055;28;20203;-64
2023/06/06 08:28:24;;;;;;;8.27;5.18;;;16.20;48.90;;;;;;5034560;28;20332;-65
2023/06/06 08:30:51;;;;;;;10.68;5.28;;;16.20;44.50;;;;;;5060226;28;20387;-65
2023/06/06 08:33:18;;;;;;;10.40;5.03;;;16.30;41.10;;;;;;5039546;28;20243;-64
2023/06/06 08:35:45;;;;;;;9.05;4.97;;;16.30;45.90;;;;;;5058173;28;20231;-65
2023/06/06 08:38:11;;;;;;;11.68;5.50;;;16.30;48.80;;;;;;5046476;28;20666;-65
2023/06/06 08:40:39;;;;;;;8.45;4.85;;;16.40;47.70;;;;;;5050398;28;20207;-65
2023/06/06 08:43:06;;;;;;;8.40;5.32;;;16.50;52.60;;;;;;5033935;28;20209;-65
2023/06/06 08:45:35;;;;;;;8.73;5.05;;;16.50;32.70;;;;;;5062194;28;20262;-65
2023/06/06 08:48:03;;;;;;;10.38;5.25;;;16.50;46.50;;;;;;5063286;28;20200;-65
2023/06/06 08:50:30;;;;;;;9.35;5.80;;;16.60;39.20;;;;;;5042218;28;20261;-65
2023/06/06 08:53:04;;;;;;;10.32;5.18;;;16.60;26.90;;;;;;5065069;28;20280;-64
2023/06/06 08:55:34;;;;;;;12.45;5.47;;;16.60;28.30;;;;;;5051810;28;20319;-65
2023/06/06 08:58:03;;;;;;;8.93;5.10;;;16.70;33.70;;;;;;5036959;28;20211;-65
2023/06/06 09:00:30;;;;;;;8.23;5.18;;;16.80;17.50;;;;;;5065933;28;20196;-65
2023/06/06 09:03:02;;;;;;;14.32;5.50;;;16.70;14.90;;;;;;5052628;28;20204;-65
2023/06/06 09:05:29;;;;;;;17.02;5.03;;;16.70;24.00;;;;;;5045774;28;20200;-65
2023/06/06 09:07:57;;;;;;;12.05;5.32;;;16.90;37.10;;;;;;5062777;28;20303;-65
2023/06/06 09:10:24;;;;;;;9.65;5.57;;;16.90;16.10;;;;;;5065049;28;20196;-65
2023/06/06 09:12:50;;;;;;;14.15;5.53;;;16.90;14.70;;;;;;5056985;28;20224;-65
2023/06/06 09:15:17;;;;;;;8.10;5.00;;;16.90;16.60;;;;;;5033541;28;20213;-65
2023/06/06 09:17:46;;;;;;;9.18;5.38;;;17.10;23.60;;;;;;5063199;28;20192;-65
2023/06/06 09:20:16;;;;;;;8.73;5.13;;;17.10;3.00;;;;;;5035395;28;20249;-65
2023/06/06 09:22:44;;;;;;;13.60;5.15;;;17.20;1.00;;;;;;5056831;28;20297;-64
2023/06/06 09:25:18;;;;;;;6.80;5.07;;;17.30;1.00;;;;;;5066484;28;20192;-64
2023/06/06 09:27:45;;;;;;;11.90;4.50;;;17.30;3.10;;;;;;5054567;28;20619;-65
2023/06/06 09:30:22;;;;;;;9.25;5.40;;;17.30;1.00;;;;;;5040187;28;20208;-64
2023/06/06 09:32:53;;;;;;;9.02;4.63;;;17.20;1.00;;;;;;5063143;28;20533;-65
2023/06/06 09:35:22;;;;;;;11.43;5.40;;;17.30;1.00;;;;;;5037362;28;20224;-65
2023/06/06 09:37:49;;;;;;;11.25;5.07;;;17.40;1.00;;;;;;5066973;28;20188;-65
2023/06/06 09:40:17;;;;;;;9.73;5.60;;;17.40;1.00;;;;;;5067810;28;20288;-65
2023/06/06 09:42:45;;;;;;;7.93;4.80;;;17.50;1.00;;;;;;5052486;28;20196;-65
2023/06/06 09:45:14;;;;;;;7.22;4.97;;;17.60;1.00;;;;;;5033146;28;20546;-65
2023/06/06 09:47:41;;;;;;;11.20;5.35;;;17.70;1.00;;;;;;5063550;28;20192;-65
2023/06/06 09:50:09;;;;;;;10.23;5.22;;;17.70;99.90;;;;;;5039689;28;20227;-65
2023/06/06 09:52:37;;;;;;;11.80;5.15;;;17.80;99.90;;;;;;5059698;28;20228;-65
2023/06/06 09:55:07;;;;;;;12.38;5.70;;;18.00;1.00;;;;;;5057549;28;20215;-64
2023/06/06 09:57:36;;;;;;;13.95;5.28;;;17.80;99.90;;;;;;5051824;28;20209;-65
2023/06/06 10:00:07;;;;;;;7.70;5.40;;;17.80;99.90;;;;;;5067653;28;20197;-65
2023/06/06 10:02:36;;;;;;;11.73;4.65;;;17.90;99.90;;;;;;5035728;28;20301;-64
2023/06/06 10:05:04;;;;;;;9.65;5.05;;;17.80;99.90;;;;;;5065664;28;20208;-65
2023/06/06 10:07:32;;;;;;;10.63;5.07;;;17.80;99.90;;;;;;5046832;28;20276;-65
2023/06/06 10:10:00;;;;;;;14.18;5.63;;;17.80;99.90;;;;;;5067344;28;20198;-66
2023/06/06 10:12:30;;;;;;;10.40;5.35;;;17.90;99.90;;;;;;5058654;28;20808;-64
2023/06/06 10:14:58;;;;;;;10.55;6.00;;;18.00;99.90;;;;;;5059014;28;20996;-64
2023/06/06 10:17:26;;;;;;;8.38;4.72;;;18.10;99.90;;;;;;5033666;28;20207;-65
2023/06/06 10:19:56;;;;;;;14.07;5.68;;;18.10;99.90;;;;;;5061715;28;20281;-64
2023/06/06 10:22:23;;;;;;;14.45;4.53;;;18.20;99.90;;;;;;5043403;28;20560;-65
2023/06/06 10:24:50;;;;;;;10.38;5.72;;;18.10;99.90;;;;;;5061345;28;20708;-65
2023/06/06 10:27:21;;;;;;;16.20;5.40;;;18.00;99.90;;;;;;5065293;28;20216;-64
2023/06/06 10:29:52;;;;;;;10.15;5.18;;;18.10;99.90;;;;;;5046808;28;20200;-65
2023/06/06 10:32:30;;;;;;;8.20;5.00;;;18.00;99.90;;;;;;5031692;28;20243;-66
2023/06/06 10:35:00;;;;;;;13.32;4.63;;;17.90;99.90;;;;;;5056134;28;20227;-65
2023/06/06 10:37:27;;;;;;;7.65;4.28;;;18.00;99.90;;;;;;5050023;28;20881;-66
2023/06/06 10:40:02;;;;;;;13.32;4.47;;;17.90;99.90;;;;;;5064879;28;20201;-65
2023/06/06 10:42:38;;;;;;;17.08;5.20;;;17.90;99.90;;;;;;5069992;28;20249;-65
2023/06/06 10:45:06;;;;;;;9.07;4.35;;;18.10;99.90;;;;;;5048935;28;20195;-65
2023/06/06 10:47:35;;;;;;;7.78;4.68;;;18.10;99.90;;;;;;5029194;28;20287;-65
2023/06/06 10:50:22;;;;;;;10.15;4.80;;;18.30;99.90;;;;;;5058350;28;20267;-65
2023/06/06 10:52:51;;;;;;;8.55;4.63;;;18.40;99.90;;;;;;5045106;28;20222;-65
2023/06/06 10:55:38;;;;;;;10.88;5.07;;;18.30;99.90;;;;;;5060823;28;20195;-65
2023/06/06 10:58:09;;;;;;;10.13;4.97;;;18.40;99.90;;;;;;5036148;28;20216;-65
2023/06/06 11:00:40;;;;;;;7.28;4.20;;;18.50;99.90;;;;;;5052430;28;20443;-65
2023/06/06 11:03:07;;;;;;;7.38;4.20;;;18.70;99.90;;;;;;5025105;28;20209;-65
2023/06/06 11:05:55;;;;;;;12.25;4.90;;;18.50;99.90;;;;;;5044851;28;20204;-65
2023/06/06 11:08:33;;;;;;;8.95;4.38;;;18.40;99.90;;;;;;5038621;28;20200;-64
2023/06/06 11:11:25;;;;;;;11.68;3.53;;;18.30;99.90;;;;;;5045163;28;20471;-64
2023/06/06 11:14:03;;;;;;;6.85;3.65;;;18.10;99.90;;;;;;5055199;28;20614;-64
2023/06/06 11:16:52;;;;;;;8.30;4.25;;;18.20;99.90;;;;;;5031177;28;20340;-64
2023/06/06 11:19:21;;;;;;;7.55;3.97;;;18.40;99.90;;;;;;5021420;28;20219;-65
2023/06/06 11:21:49;;;;;;;8.35;4.65;;;18.50;99.90;;;;;;5060150;28;20312;-64
2023/06/06 11:24:19;;;;;;;9.00;4.72;;;18.50;99.90;;;;;;5019634;28;21401;-64
2023/06/06 11:26:51;;;;;;;8.40;4.60;;;18.30;99.90;;;;;;5057307;28;20200;-64
2023/06/06 11:29:20;;;;;;;13.63;5.25;;;18.30;99.90;;;;;;5056028;28;20696;-64
2023/06/06 11:31:48;;;;;;;9.07;4.45;;;18.40;99.90;;;;;;5042794;28;20811;-64
2023/06/06 11:34:16;;;;;;;10.50;4.70;;;18.30;99.90;;;;;;5037014;28;20228;-64
2023/06/06 11:36:44;;;;;;;7.50;4.82;;;18.40;99.90;;;;;;5045912;28;20845;-65
2023/06/06 11:39:13;;;;;;;8.32;4.70;;;18.40;99.90;;;;;;5036995;28;21024;-65
2023/06/06 11:41:44;;;;;;;5.60;3.63;;;18.40;99.90;;;;;;5034435;28;20192;-64
2023/06/06 11:44:11;;;;;;;12.20;4.88;;;18.40;99.90;;;;;;5052799;28;20828;-64
2023/06/06 11:46:45;;;;;;;8.65;4.45;;;18.30;99.90;;;;;;5039689;28;20196;-65
2023/06/06 11:49:12;;;;;;;8.02;4.28;;;18.30;99.90;;;;;;5042144;28;20223;-64
2023/06/06 11:51:39;;;;;;;9.52;4.15;;;18.10;99.90;;;;;;5026895;28;20212;-64
2023/06/06 11:54:13;;;;;;;10.02;4.30;;;18.10;99.90;;;;;;5036953;28;20231;-64
2023/06/06 11:56:41;;;;;;;11.73;4.65;;;18.10;99.90;;;;;;5036823;28;20210;-64
2023/06/06 11:59:09;;;;;;;7.20;3.95;;;18.10;99.90;;;;;;5052990;28;21235;-64
2023/06/06 12:01:36;;;;;;;9.27;4.45;;;18.00;99.90;;;;;;5047034;28;20205;-64
2023/06/06 12:04:07;;;;;;;10.32;4.65;;;18.00;99.90;;;;;;5045467;28;20204;-64
2023/06/06 12:06:35;;;;;;;8.20;3.80;;;17.90;99.90;;;;;;5030167;28;20204;-64
2023/06/06 12:09:03;;;;;;;10.85;4.78;;;18.00;99.90;;;;;;5044541;28;20196;-64
2023/06/06 12:11:31;;;;;;;7.80;3.95;;;17.90;99.90;;;;;;5020674;28;20561;-64
2023/06/06 12:13:59;;;;;;;6.40;3.70;;;18.00;99.90;;;;;;5044466;28;20224;-64
2023/06/06 12:16:29;;;;;;;11.40;4.50;;;18.00;99.90;;;;;;5042225;28;21038;-64
2023/06/06 12:18:56;;;;;;;9.73;4.40;;;18.00;99.90;;;;;;5056363;28;21084;-64
2023/06/06 12:21:23;;;;;;;16.10;5.03;;;18.00;99.90;;;;;;5015338;28;20462;-64
2023/06/06 12:23:50;;;;;;;12.10;5.03;;;18.00;99.90;;;;;;5033833;28;20216;-65
2023/06/06 12:26:18;;;;;;;9.63;5.07;;;18.10;99.90;;;;;;5049700;28;20208;-64
2023/06/06 12:29:00;;;;;;;8.13;4.70;;;18.00;99.90;;;;;;5037356;28;20227;-64
2023/06/06 12:31:30;;;;;;;6.63;4.70;;;17.80;99.90;;;;;;5054378;28;20200;-65
2023/06/06 12:33:58;;;;;;;8.38;4.43;;;17.90;99.90;;;;;;5046718;28;20235;-64
2023/06/06 12:36:26;;;;;;;9.63;4.07;;;18.10;99.90;;;;;;5025311;28;20851;-64
2023/06/06 12:39:00;;;;;;;7.50;4.10;;;18.20;99.90;;;;;;5064791;28;20625;-64
2023/06/06 12:41:39;;;;;;;11.18;4.57;;;18.10;99.90;;;;;;5039724;28;20219;-64
2023/06/06 12:44:10;;;;;;;8.57;4.32;;;18.10;99.90;;;;;;5001984;28;20229;-64
2023/06/06 12:46:38;;;;;;;10.35;4.68;;;18.10;99.90;;;;;;5007688;28;20235;-64
2023/06/06 12:49:05;;;;;;;8.93;3.72;;;18.20;99.90;;;;;;5012307;28;20239;-64